Time;durP1;ratioP1;P1;durP2;ratioP2;P2;SDS_P1;SDS_P2;PMS_P1;PMS_P2;Temp;Humidity;BMP_temperature;BMP_pressure;BME280_temperature;BME280_humidity;BME280_pressure;Samples;Min_cycle;Max_cycle;Signal;HPM_P1;HPM_P2
2022/11/02 00:00:40;;;;;;;17.07;12.47;;;;;;;10.31;100.00;98133.28;1704786;82;21147;-55
2022/11/02 00:03:07;;;;;;;17.90;11.93;;;;;;;10.31;100.00;98137.30;1704249;82;21064;-55
2022/11/02 00:05:35;;;;;;;17.30;11.75;;;;;;;10.34;100.00;98131.34;1694152;82;20916;-57
2022/11/02 00:08:01;;;;;;;18.30;12.40;;;;;;;10.37;100.00;98132.13;1688983;82;21200;-56
2022/11/02 00:10:31;;;;;;;17.77;12.95;;;;;;;10.39;100.00;98135.31;1716546;83;21020;-56
2022/11/02 00:12:58;;;;;;;15.55;12.23;;;;;;;10.41;100.00;98136.38;1703206;82;21525;-56
2022/11/02 00:15:29;;;;;;;18.25;11.78;;;;;;;10.42;100.00;98136.09;1692636;82;20971;-56
2022/11/02 00:18:05;;;;;;;17.20;12.30;;;;;;;10.42;100.00;98137.43;1689584;82;20956;-56
2022/11/02 00:20:35;;;;;;;17.62;12.53;;;;;;;10.41;100.00;98131.80;1699842;82;21689;-56
2022/11/02 00:23:05;;;;;;;18.57;13.03;;;;;;;10.39;100.00;98129.95;1699123;82;20976;-56
2022/11/02 00:25:33;;;;;;;17.15;12.40;;;;;;;10.40;100.00;98130.23;1651468;83;20973;-57
2022/11/02 00:28:00;;;;;;;19.98;12.75;;;;;;;10.41;100.00;98123.77;1707378;83;21471;-56
2022/11/02 00:30:26;;;;;;;16.80;12.82;;;;;;;10.41;100.00;98127.78;1714267;82;20923;-56
2022/11/02 00:32:54;;;;;;;17.95;12.35;;;;;;;10.42;100.00;98130.73;1689113;82;21075;-56
2022/11/02 00:35:27;;;;;;;20.50;13.13;;;;;;;10.44;100.00;98119.19;1659907;83;21103;-56
2022/11/02 00:37:53;;;;;;;17.85;12.37;;;;;;;10.45;100.00;98124.02;1722647;83;20996;-57
2022/11/02 00:40:20;;;;;;;18.90;12.70;;;;;;;10.47;100.00;98120.50;1694601;82;21019;-56
2022/11/02 00:42:47;;;;;;;17.50;12.80;;;;;;;10.44;100.00;98119.73;1720151;83;20992;-56
2022/11/02 00:45:14;;;;;;;19.23;13.68;;;;;;;10.42;100.00;98110.65;1704739;82;21132;-56
2022/11/02 00:47:43;;;;;;;22.67;14.23;;;;;;;10.42;100.00;98113.33;1704629;82;21413;-56
2022/11/02 00:50:10;;;;;;;19.35;13.43;;;;;;;10.42;100.00;98110.65;1716930;83;20913;-56
2022/11/02 00:52:39;;;;;;;18.35;13.10;;;;;;;10.44;100.00;98116.52;1697831;82;21062;-56
2022/11/02 00:55:08;;;;;;;24.05;14.65;;;;;;;10.46;100.00;98104.20;1692015;82;20958;-56
2022/11/02 00:57:35;;;;;;;20.60;15.48;;;;;;;10.46;100.00;98103.63;1719317;83;21148;-56
2022/11/02 01:00:01;;;;;;;22.50;15.40;;;;;;;10.47;100.00;98110.59;1699597;82;21571;-56
2022/11/02 01:02:29;;;;;;;21.62;15.10;;;;;;;10.45;100.00;98100.72;1717307;82;21046;-56
2022/11/02 01:04:55;;;;;;;21.00;14.05;;;;;;;10.45;100.00;98099.38;1685789;82;21561;-56
2022/11/02 01:07:22;;;;;;;20.80;15.03;;;;;;;10.45;100.00;98104.73;1702862;82;21027;-56
2022/11/02 01:09:49;;;;;;;25.17;15.78;;;;;;;10.45;100.00;98110.63;1703861;82;21298;-56
2022/11/02 01:12:17;;;;;;;24.52;16.17;;;;;;;10.40;100.00;98103.45;1713044;82;20929;-56
2022/11/02 01:14:48;;;;;;;21.50;14.35;;;;;;;10.39;100.00;98111.22;1719872;83;21497;-57
2022/11/02 01:17:17;;;;;;;21.33;14.25;;;;;;;10.39;100.00;98100.50;1719041;83;20930;-56
2022/11/02 01:19:44;;;;;;;20.43;15.40;;;;;;;10.40;100.00;98109.34;1700261;82;21057;-56
2022/11/02 01:22:10;;;;;;;23.60;16.02;;;;;;;10.39;100.00;98105.86;1716858;83;21122;-56
2022/11/02 01:24:40;;;;;;;23.62;15.10;;;;;;;10.39;100.00;98101.84;1705846;82;20936;-57
2022/11/02 01:27:06;;;;;;;22.60;15.83;;;;;;;10.37;100.00;98104.02;1690935;82;21041;-56
2022/11/02 01:29:34;;;;;;;22.70;14.80;;;;;;;10.39;100.00;98109.10;1720679;83;20969;-56
2022/11/02 01:32:01;;;;;;;23.98;15.43;;;;;;;10.39;100.00;98097.05;1708023;82;21014;-56
2022/11/02 01:34:28;;;;;;;20.80;14.73;;;;;;;10.39;100.00;98102.41;1701682;82;21217;-56
2022/11/02 01:36:54;;;;;;;20.17;15.05;;;;;;;10.39;100.00;98107.20;1716844;82;20961;-56
2022/11/02 01:39:21;;;;;;;20.10;14.80;;;;;;;10.39;100.00;98097.83;1717230;83;20971;-56
2022/11/02 01:41:51;;;;;;;23.52;14.98;;;;;;;10.38;100.00;98097.59;1706801;82;21582;-57
2022/11/02 01:44:33;;;;;;;24.37;15.60;;;;;;;10.40;100.00;98091.94;1703121;82;21012;-56
2022/11/02 01:47:09;;;;;;;24.25;15.53;;;;;;;10.42;100.00;98095.13;1718724;83;21589;-55
2022/11/02 01:49:38;;;;;;;21.25;15.28;;;;;;;10.40;100.00;98094.08;1723830;83;20925;-56
2022/11/02 01:52:12;;;;;;;22.22;15.40;;;;;;;10.41;100.00;98098.33;1708693;82;21472;-56
2022/11/02 01:54:45;;;;;;;23.87;16.07;;;;;;;10.40;100.00;98093.27;1712690;82;21016;-57
2022/11/02 01:57:16;;;;;;;20.97;15.10;;;;;;;10.44;100.00;98097.77;1696282;82;21054;-55
2022/11/02 01:59:48;;;;;;;21.68;14.60;;;;;;;10.45;100.00;98095.36;1688947;82;21560;-56
2022/11/02 02:02:19;;;;;;;21.00;15.15;;;;;;;10.44;100.00;98097.77;1714183;83;20912;-57
2022/11/02 02:04:50;;;;;;;24.95;16.27;;;;;;;10.44;100.00;98095.09;1694812;82;21049;-57
2022/11/02 02:07:17;;;;;;;23.60;15.98;;;;;;;10.42;100.00;98094.59;1696197;82;20893;-57
2022/11/02 02:09:44;;;;;;;19.87;15.13;;;;;;;10.44;100.00;98095.09;1695677;82;21035;-57
2022/11/02 02:12:12;;;;;;;20.68;14.35;;;;;;;10.44;100.00;98096.43;1685815;82;21100;-57
2022/11/02 02:14:41;;;;;;;23.40;15.03;;;;;;;10.45;100.00;98098.04;1696014;82;20968;-57
2022/11/02 02:17:40;;;;;;;19.42;14.83;;;;;;;10.47;100.00;98096.41;1709549;82;21611;-57
2022/11/02 02:20:17;;;;;;;24.60;16.05;;;;;;;10.48;100.00;98089.98;1685052;82;21098;-57
2022/11/02 02:23:04;;;;;;;24.82;15.65;;;;;;;10.50;100.00;98090.48;1700714;82;20945;-57
2022/11/02 02:26:04;;;;;;;20.92;15.48;;;;;;;10.50;100.00;98095.84;1712466;82;21047;-56
2022/11/02 02:28:53;;;;;;;20.32;15.60;;;;;;;10.49;100.00;98088.34;1713746;82;21525;-56
2022/11/02 02:31:28;;;;;;;22.98;15.40;;;;;;;10.50;100.00;98097.17;1718399;83;21081;-56
2022/11/02 02:37:05;;;;;;;20.27;14.20;;;;;;;10.50;100.00;98093.16;1705022;83;21030;-56
2022/11/02 02:39:59;;;;;;;20.80;14.85;;;;;;;10.49;100.00;98091.02;1683962;83;21736;-56
2022/11/02 02:42:37;;;;;;;21.20;15.38;;;;;;;10.51;100.00;98092.05;1689734;82;22893;-57
2022/11/02 02:45:39;;;;;;;27.85;16.82;;;;;;;10.52;100.00;98097.15;1713282;82;20897;-56
2022/11/02 02:48:17;;;;;;;19.20;15.23;;;;;;;10.54;100.00;98096.31;1700760;83;20961;-58
2022/11/02 02:50:49;;;;;;;22.35;15.55;;;;;;;10.50;100.00;98096.64;1701078;82;21427;-55
2022/11/02 02:53:25;;;;;;;21.45;16.02;;;;;;;10.47;100.00;98091.85;1715752;83;21841;-56
2022/11/02 02:55:51;;;;;;;;;;;;;;;10.50;100.00;98096.64;1710496;83;20964;-57
2022/11/02 02:58:23;;;;;;;23.80;15.90;;;;;;;10.52;100.00;98092.33;1704797;82;20126;-57
2022/11/02 03:00:51;;;;;;;23.35;15.80;;;;;;;10.54;100.00;98096.31;1719045;83;21024;-57
2022/11/02 03:03:23;;;;;;;25.17;15.70;;;;;;;10.56;100.00;98100.84;1719858;82;21147;-57
2022/11/02 03:06:32;;;;;;;20.97;15.98;;;;;;;10.58;100.00;98094.64;1697361;82;21223;-57
2022/11/02 03:09:19;;;;;;;26.70;17.10;;;;;;;10.61;100.00;98102.66;1716475;83;20960;-57
2022/11/02 03:11:55;;;;;;;22.73;15.95;;;;;;;10.61;100.00;98103.45;1710611;83;21032;-58
2022/11/02 03:14:28;;;;;;;20.30;15.45;;;;;;;10.62;100.00;98100.24;1707332;82;21060;-57
2022/11/02 03:17:19;;;;;;;21.68;16.17;;;;;;;10.61;100.00;98094.08;1693095;82;20960;-57
2022/11/02 03:20:22;;;;;;;24.52;15.55;;;;;;;10.62;100.00;98091.64;1703661;82;21419;-56
2022/11/02 03:23:22;;;;;;;22.10;17.05;;;;;;;10.63;100.00;98095.92;1720610;82;20987;-56
2022/11/02 03:26:10;;;;;;;24.02;16.70;;;;;;;10.63;100.00;98101.28;1722854;83;20940;-57
2022/11/02 03:29:04;;;;;;;21.05;15.32;;;;;;;10.63;100.00;98101.81;1687217;82;22428;-56
2022/11/02 03:31:43;;;;;;;24.40;16.05;;;;;;;10.63;100.00;98093.78;1689302;82;21097;-56
2022/11/02 03:34:33;;;;;;;25.02;16.10;;;;;;;10.61;100.00;98094.08;1701985;82;21122;-56
2022/11/02 03:37:17;;;;;;;21.37;16.07;;;;;;;10.62;100.00;98090.87;1699866;83;21081;-58
2022/11/02 03:39:55;;;;;;;21.65;15.48;;;;;;;10.63;100.00;98090.57;1703446;82;20956;-58
2022/11/02 03:42:25;;;;;;;22.73;15.10;;;;;;;10.65;100.00;98091.08;1704572;82;21175;-56
2022/11/02 03:44:57;;;;;;;22.77;16.20;;;;;;;10.65;100.00;98091.08;1711516;83;21064;-56
2022/11/02 03:47:25;;;;;;;19.50;15.25;;;;;;;10.63;100.00;98086.55;1713066;83;21820;-56
2022/11/02 03:49:52;;;;;;;21.07;15.95;;;;;;;10.64;100.00;98090.03;1716164;82;21044;-56
2022/11/02 03:52:25;;;;;;;24.47;15.58;;;;;;;10.64;100.00;98086.02;1703182;82;20968;-56
2022/11/02 03:55:11;;;;;;;25.00;15.68;;;;;;;10.64;100.00;98086.82;1711562;82;21460;-56
2022/11/02 03:57:48;;;;;;;21.65;15.88;;;;;;;10.65;100.00;98081.70;1715246;83;21156;-57
2022/11/02 04:00:20;;;;;;;21.40;16.70;;;;;;;10.64;100.00;98082.80;1714541;82;21828;-55
2022/11/02 04:02:55;;;;;;;28.42;16.75;;;;;;;10.62;100.00;98078.25;1708606;82;20957;-56
2022/11/02 04:05:36;;;;;;;26.75;15.80;;;;;;;10.63;100.00;98085.21;1687942;82;21464;-57
2022/11/02 04:08:19;;;;;;;21.30;15.60;;;;;;;10.63;100.00;98081.19;1695216;82;20932;-57
2022/11/02 04:16:19;;;;;;;28.55;16.77;;;;;;;10.62;100.00;98086.28;1715335;82;28118;-58
2022/11/02 04:21:35;;;;;;;23.65;16.57;;;;;;;10.60;100.00;98080.42;1717135;83;20987;-56
2022/11/02 04:26:50;;;;;;;24.52;17.65;;;;;;;10.61;100.00;98087.38;1722245;83;21240;-56
2022/11/02 04:29:17;;;;;;;23.45;16.30;;;;;;;10.60;100.00;98090.36;1710857;83;21050;-56
2022/11/02 04:31:45;;;;;;;26.93;17.37;;;;;;;10.59;100.00;98082.86;1693204;82;20962;-56
2022/11/02 04:34:13;;;;;;;26.07;17.60;;;;;;;10.58;100.00;98079.11;1685817;82;20940;-56
2022/11/02 04:36:41;;;;;;;29.07;21.15;;;;;;;10.59;100.00;98088.22;1704648;82;21468;-57
2022/11/02 04:39:09;;;;;;;29.30;19.17;;;;;;;10.59;100.00;98088.75;1702545;82;21513;-56
2022/11/02 04:41:42;;;;;;;28.85;19.00;;;;;;;10.57;100.00;98086.38;1721262;83;20934;-56
2022/11/02 04:44:13;;;;;;;32.73;17.35;;;;;;;10.59;100.00;98089.56;1714154;83;21032;-56
2022/11/02 04:46:42;;;;;;;25.57;17.40;;;;;;;10.59;100.00;98092.23;1696613;82;21031;-56
2022/11/02 04:49:10;;;;;;;23.10;16.90;;;;;;;10.58;100.00;98095.98;1696840;82;20894;-56
2022/11/02 04:51:41;;;;;;;24.95;17.67;;;;;;;10.58;100.00;98098.66;1704275;82;21081;-57
2022/11/02 04:54:10;;;;;;;24.75;16.77;;;;;;;10.57;100.00;98102.45;1706914;82;21500;-57
2022/11/02 04:56:38;;;;;;;26.62;16.85;;;;;;;10.55;100.00;98097.89;1688822;82;21200;-57
2022/11/02 04:59:05;;;;;;;22.58;17.07;;;;;;;10.52;100.00;98097.15;1696067;82;21025;-57
2022/11/02 05:01:35;;;;;;;25.50;18.17;;;;;;;10.51;100.00;98090.18;1710509;82;20948;-56
2022/11/02 05:04:04;;;;;;;25.62;17.35;;;;;;;10.49;100.00;98095.56;1704822;82;21247;-57
2022/11/02 05:06:32;;;;;;;26.15;17.80;;;;;;;10.48;100.00;98103.36;1705456;82;20973;-56
2022/11/02 05:09:00;;;;;;;26.30;17.80;;;;;;;10.50;100.00;98102.53;1722827;83;20969;-57
2022/11/02 05:11:29;;;;;;;28.23;18.42;;;;;;;10.51;100.00;98110.27;1723745;83;20984;-57
2022/11/02 05:13:56;;;;;;;23.92;17.40;;;;;;;10.51;100.00;98111.61;1710844;83;20928;-57
2022/11/02 05:16:25;;;;;;;29.12;18.02;;;;;;;10.53;100.00;98108.66;1699670;82;21115;-57
2022/11/02 05:18:54;;;;;;;25.20;18.27;;;;;;;10.54;100.00;98116.94;1714166;83;21056;-57
2022/11/02 05:21:21;;;;;;;21.50;16.80;;;;;;;10.51;100.00;98116.97;1697493;82;20924;-56
2022/11/02 05:23:48;;;;;;;24.00;18.87;;;;;;;10.53;100.00;98110.00;1706860;82;20946;-57
2022/11/02 05:26:16;;;;;;;24.82;17.90;;;;;;;10.51;100.00;98108.93;1719759;83;21052;-57
2022/11/02 05:28:44;;;;;;;21.87;17.00;;;;;;;10.50;100.00;98118.06;1695197;82;21142;-57
2022/11/02 05:31:11;;;;;;;24.35;17.60;;;;;;;10.52;100.00;98109.20;1705770;83;21025;-57
2022/11/02 05:33:38;;;;;;;27.70;19.32;;;;;;;10.53;100.00;98114.02;1703578;82;21011;-57
2022/11/02 05:36:08;;;;;;;25.40;18.12;;;;;;;10.53;100.00;98118.81;1689607;82;21532;-57
2022/11/02 05:38:36;;;;;;;29.63;17.90;;;;;;;10.51;100.00;98114.28;1703159;82;21031;-56
2022/11/02 05:41:03;;;;;;;24.50;16.82;;;;;;;10.51;100.00;98125.00;1708814;82;21116;-57
2022/11/02 05:43:31;;;;;;;23.77;18.10;;;;;;;10.51;100.00;98126.34;1700381;82;21490;-57
2022/11/02 05:46:01;;;;;;;25.88;18.48;;;;;;;10.51;100.00;98128.21;1706229;82;21579;-57
2022/11/02 05:48:31;;;;;;;24.82;17.85;;;;;;;10.52;100.00;98121.25;1711624;83;21468;-57
2022/11/02 05:50:59;;;;;;;23.10;17.30;;;;;;;10.51;100.00;98126.87;1685842;82;20916;-56
2022/11/02 05:53:26;;;;;;;24.23;16.97;;;;;;;10.54;100.00;98129.80;1699726;82;21088;-57
2022/11/02 05:55:59;;;;;;;23.00;18.65;;;;;;;10.55;100.00;98134.05;1699856;82;21587;-57
2022/11/02 05:58:26;;;;;;;27.73;18.77;;;;;;;10.54;100.00;98135.14;1698662;83;21424;-57
2022/11/02 06:00:52;;;;;;;27.93;17.60;;;;;;;10.56;100.00;98134.85;1702122;82;20991;-57
2022/11/02 06:03:19;;;;;;;23.60;17.05;;;;;;;10.55;100.00;98140.74;1696959;82;20923;-57
2022/11/02 06:05:47;;;;;;;20.92;16.82;;;;;;;10.53;100.00;98138.12;1712475;83;21113;-57
2022/11/02 06:08:13;;;;;;;25.20;17.48;;;;;;;10.53;100.00;98140.23;1709192;82;21468;-57
2022/11/02 06:10:43;;;;;;;24.87;17.90;;;;;;;10.55;100.00;98143.42;1710150;82;21473;-57
2022/11/02 06:13:10;;;;;;;25.23;17.52;;;;;;;10.55;100.00;98148.78;1702030;82;21499;-57
2022/11/02 06:15:36;;;;;;;23.40;17.67;;;;;;;10.53;100.00;98148.27;1685997;82;20963;-57
2022/11/02 06:18:04;;;;;;;26.35;17.80;;;;;;;10.53;100.00;98152.28;1708387;82;22063;-57
2022/11/02 06:20:31;;;;;;;23.98;16.70;;;;;;;10.51;100.00;98154.45;1713092;82;21128;-57
2022/11/02 06:22:58;;;;;;;21.40;16.05;;;;;;;10.50;100.00;98158.23;1718470;83;21023;-57
2022/11/02 06:25:27;;;;;;;19.70;15.45;;;;;;;10.50;100.00;98164.94;1722707;83;20967;-57
2022/11/02 06:27:57;;;;;;;23.75;17.62;;;;;;;10.49;100.00;98155.83;1679670;82;20937;-56
2022/11/02 06:30:26;;;;;;;28.95;17.37;;;;;;;10.50;100.00;98162.25;1688414;83;21794;-55
2022/11/02 06:32:54;;;;;;;21.75;17.48;;;;;;;10.51;100.00;98161.16;1703276;83;21461;-57
2022/11/02 06:35:22;;;;;;;22.10;17.15;;;;;;;10.51;100.00;98166.51;1711579;83;20971;-57
2022/11/02 06:37:48;;;;;;;22.13;16.73;;;;;;;10.52;100.00;98170.80;1698805;83;21147;-56
2022/11/02 06:40:16;;;;;;;23.90;17.87;;;;;;;10.51;100.00;98171.87;1692096;83;21049;-57
2022/11/02 06:42:42;;;;;;;26.82;18.07;;;;;;;10.52;100.00;98168.12;1680018;83;21269;-57
2022/11/02 06:45:10;;;;;;;23.27;17.45;;;;;;;10.52;100.00;98172.14;1703761;82;21115;-57
2022/11/02 06:47:37;;;;;;;20.85;16.32;;;;;;;10.52;100.00;98173.48;1706681;82;20948;-56
2022/11/02 06:50:07;;;;;;;22.75;18.12;;;;;;;10.51;100.00;98179.90;1707127;83;20976;-56
2022/11/02 06:52:34;;;;;;;24.10;18.65;;;;;;;10.49;100.00;98175.38;1727251;80;21006;-56
2022/11/02 06:55:02;;;;;;;30.45;19.40;;;;;;;10.50;100.00;98171.63;1736323;81;21142;-56
2022/11/02 06:57:36;;;;;;;27.95;18.85;;;;;;;10.52;100.00;98174.01;1718715;81;21081;-57
2022/11/02 07:00:07;;;;;;;26.42;18.62;;;;;;;10.54;100.00;98175.32;1712025;82;21382;-56
2022/11/02 07:02:34;;;;;;;25.37;19.23;;;;;;;10.56;100.00;98169.13;1713165;81;21036;-57
2022/11/02 07:05:01;;;;;;;25.10;19.17;;;;;;;10.58;100.00;98173.66;1712800;80;21096;-57
2022/11/02 07:07:28;;;;;;;22.65;17.57;;;;;;;10.60;100.00;98172.05;1700931;83;21779;-56
2022/11/02 07:10:03;;;;;;;25.80;17.73;;;;;;;10.57;100.00;98176.09;1707163;82;21051;-56
2022/11/02 07:12:32;;;;;;;29.27;19.00;;;;;;;10.56;100.00;98182.53;1704807;82;21145;-56
2022/11/02 07:15:00;;;;;;;24.57;18.07;;;;;;;10.56;100.00;98179.84;1742601;80;21523;-56
2022/11/02 07:17:28;;;;;;;22.10;16.73;;;;;;;10.52;100.00;98176.16;1715435;81;21196;-57
2022/11/02 07:19:56;;;;;;;24.43;15.93;;;;;;;10.48;100.00;98180.46;1723238;81;21287;-57
2022/11/02 07:22:23;;;;;;;21.65;15.18;;;;;;;10.46;100.00;98178.61;1718685;82;20911;-56
2022/11/02 07:24:50;;;;;;;20.15;14.20;;;;;;;10.45;100.00;98172.21;1703580;82;21018;-56
2022/11/02 07:27:16;;;;;;;17.92;13.72;;;;;;;10.46;100.00;98175.94;1685534;81;21110;-57
2022/11/02 07:29:43;;;;;;;21.82;13.78;;;;;;;10.46;100.00;98181.86;1701020;82;21455;-57
2022/11/02 07:32:11;;;;;;;19.27;12.55;;;;;;;10.47;100.00;98185.58;1682697;83;21120;-58
2022/11/02 07:34:37;;;;;;;15.28;11.83;;;;;;;10.45;100.00;98187.75;1689003;82;21091;-57
2022/11/02 07:37:04;;;;;;;19.17;12.93;;;;;;;10.43;100.00;98185.89;1695984;84;21093;-57
2022/11/02 07:39:31;;;;;;;19.05;14.33;;;;;;;10.41;100.00;98194.73;1688630;83;21036;-56
2022/11/02 07:41:57;;;;;;;18.77;13.62;;;;;;;10.36;100.00;98196.14;1701847;83;21110;-56
2022/11/02 07:44:25;;;;;;;18.82;12.85;;;;;;;10.36;100.00;98189.98;1698883;83;21177;-56
2022/11/02 07:46:55;;;;;;;21.93;12.53;;;;;;;10.37;100.00;98194.24;1706527;82;21169;-55
2022/11/02 07:49:24;;;;;;;17.07;12.25;;;;;;;10.36;100.00;98197.48;1696915;83;21503;-57
2022/11/02 07:51:55;;;;;;;16.80;13.00;;;;;;;10.35;100.00;98193.20;1704443;83;21096;-59
2022/11/02 07:54:22;;;;;;;15.18;11.03;;;;;;;10.32;100.00;98196.44;1694457;82;21160;-57
2022/11/02 07:56:50;;;;;;;15.40;11.68;;;;;;;10.30;100.00;98195.92;1695372;83;21154;-57
2022/11/02 07:59:18;;;;;;;16.73;11.90;;;;;;;10.27;100.00;98192.47;1697018;83;21096;-57
2022/11/02 08:01:45;;;;;;;14.87;12.73;;;;;;;10.29;100.00;98199.70;1708533;81;21592;-58
2022/11/02 08:04:14;;;;;;;21.77;14.35;;;;;;;10.28;100.00;98177.48;1695337;83;21133;-57
2022/11/02 08:06:50;;;;;;;22.67;14.78;;;;;;;10.32;100.00;98176.92;1703904;82;21148;-57
2022/11/02 08:09:19;;;;;;;22.00;15.53;;;;;;;10.33;100.00;98179.30;1702143;82;39200;-56
2022/11/02 08:11:51;;;;;;;18.98;13.45;;;;;;;10.33;100.00;98183.31;1700526;83;21438;-56
2022/11/02 08:14:22;;;;;;;21.37;16.32;;;;;;;10.35;100.00;98190.52;1710619;82;21562;-57
2022/11/02 08:17:01;;;;;;;24.05;17.15;;;;;;;10.38;100.00;98188.63;1714407;82;21546;-57
2022/11/02 08:19:30;;;;;;;23.35;16.67;;;;;;;10.36;100.00;98189.45;1713830;82;21453;-57
2022/11/02 08:21:58;;;;;;;24.57;17.45;;;;;;;10.35;100.00;98187.84;1711805;82;21298;-57
2022/11/02 08:24:24;;;;;;;24.27;17.37;;;;;;;10.39;100.00;98189.43;1709975;80;21739;-57
2022/11/02 08:26:51;;;;;;;26.93;18.10;;;;;;;10.42;100.00;98181.61;1699569;82;21082;-57
2022/11/02 08:29:18;;;;;;;25.57;15.88;;;;;;;10.49;100.00;98193.31;1705642;82;21075;-57
2022/11/02 08:31:46;;;;;;;22.73;16.55;;;;;;;10.52;100.00;98194.90;1688289;83;21140;-57
2022/11/02 08:34:13;;;;;;;22.32;16.60;;;;;;;10.56;100.00;98193.23;1673700;84;21177;-57
2022/11/02 08:36:41;;;;;;;26.07;16.20;;;;;;;10.59;100.00;98194.02;1686276;84;21560;-57
2022/11/02 08:39:11;;;;;;;22.20;16.40;;;;;;;10.60;100.00;98196.94;1688936;83;20934;-57
2022/11/02 08:41:40;;;;;;;25.80;16.73;;;;;;;10.59;100.00;98185.98;1713978;82;21125;-57
2022/11/02 08:44:06;;;;;;;22.95;17.55;;;;;;;10.63;100.00;98194.23;1713101;82;21087;-57
2022/11/02 08:46:34;;;;;;;25.30;18.73;;;;;;;10.69;100.00;98197.13;1699640;82;21728;-58
2022/11/02 08:49:01;;;;;;;24.27;17.37;;;;;;;10.73;100.00;98184.21;1702536;82;21170;-58
2022/11/02 08:51:29;;;;;;;24.32;16.32;;;;;;;10.76;100.00;98190.88;1699135;83;21018;-57
2022/11/02 08:53:59;;;;;;;25.90;15.05;;;;;;;10.75;100.00;98190.08;1708076;83;21116;-56
2022/11/02 08:56:27;;;;;;;24.07;17.02;;;;;;;10.75;100.00;98196.77;1711543;82;21094;-57
2022/11/02 08:58:55;;;;;;;26.30;16.42;;;;;;;10.74;100.00;98202.42;1704673;82;21521;-55
2022/11/02 09:01:23;;;;;;;21.00;15.50;;;;;;;10.67;100.00;98197.39;1683064;84;21554;-57
2022/11/02 09:03:50;;;;;;;24.75;16.17;;;;;;;10.56;100.00;98192.44;1701933;82;21059;-58
2022/11/02 09:06:17;;;;;;;25.65;16.55;;;;;;;10.50;100.00;98190.91;1705316;83;20996;-56
2022/11/02 09:08:43;;;;;;;25.43;16.82;;;;;;;10.51;100.00;98189.27;1705767;82;21039;-56
2022/11/02 09:11:11;;;;;;;26.75;17.60;;;;;;;10.54;100.00;98188.71;1715029;83;21289;-57
2022/11/02 09:13:40;;;;;;;26.62;17.85;;;;;;;10.61;100.00;98189.17;1714572;83;21204;-56
2022/11/02 09:16:10;;;;;;;22.60;17.65;;;;;;;10.61;100.00;98191.05;1707724;82;21113;-56
2022/11/02 09:18:36;;;;;;;24.98;17.95;;;;;;;10.60;100.00;98182.20;1708083;81;21098;-56
2022/11/02 09:21:05;;;;;;;23.30;18.17;;;;;;;10.61;100.00;98186.48;1692546;83;21049;-57
2022/11/02 09:23:32;;;;;;;20.77;16.40;;;;;;;10.62;100.00;98197.44;1726399;81;21230;-57
2022/11/02 09:25:59;;;;;;;23.22;16.50;;;;;;;10.64;100.00;98191.82;1714143;81;21023;-57
2022/11/02 09:28:26;;;;;;;23.15;17.07;;;;;;;10.64;100.00;98196.64;1700146;82;21077;-56
2022/11/02 09:30:53;;;;;;;25.50;16.10;;;;;;;10.64;100.00;98190.48;1675259;83;21220;-57
2022/11/02 09:33:21;;;;;;;22.50;16.40;;;;;;;10.63;100.00;98191.55;1690392;83;21159;-57
2022/11/02 09:35:48;;;;;;;26.80;18.00;;;;;;;10.64;100.00;98196.64;1718957;81;21340;-57
2022/11/02 09:38:17;;;;;;;25.08;18.30;;;;;;;10.64;100.00;98198.52;1695012;83;21014;-57
2022/11/02 09:40:48;;;;;;;24.80;18.40;;;;;;;10.62;100.00;98201.46;1700201;82;20935;-56
2022/11/02 09:43:38;;;;;;;23.62;17.25;;;;;;;10.58;100.00;98192.94;1692276;83;21536;-56
2022/11/02 09:46:18;;;;;;;28.23;18.15;;;;;;;10.57;100.00;98194.84;1698568;81;21678;-55
2022/11/02 09:48:58;;;;;;;27.15;18.20;;;;;;;10.59;100.00;98198.03;1696847;82;21136;-55
2022/11/02 09:51:41;;;;;;;26.65;17.85;;;;;;;10.58;100.00;98204.46;1703211;83;21130;-55
2022/11/02 09:54:22;;;;;;;25.05;17.05;;;;;;;10.54;100.00;98199.42;1699329;83;21068;-55
2022/11/02 09:56:49;;;;;;;25.12;16.77;;;;;;;10.50;100.00;98194.39;1715953;82;21598;-55
2022/11/02 09:59:21;;;;;;;25.92;17.05;;;;;;;10.52;100.00;98194.90;1740083;81;21411;-55
2022/11/02 10:02:23;;;;;;;21.55;15.88;;;;;;;10.54;100.00;98191.39;1709589;82;21838;-56
2022/11/02 10:05:33;;;;;;;21.55;15.18;;;;;;;10.57;100.00;98185.47;1726431;81;21102;-57
2022/11/02 10:08:27;;;;;;;25.08;16.62;;;;;;;10.61;100.00;98192.38;1691904;81;21049;-56
2022/11/02 10:11:18;;;;;;;24.82;16.35;;;;;;;10.63;100.00;98189.67;1684048;82;21043;-57
2022/11/02 10:13:56;;;;;;;24.18;16.17;;;;;;;10.62;100.00;98188.07;1689112;83;21004;-57
2022/11/02 10:16:33;;;;;;;21.15;16.17;;;;;;;10.63;100.00;98194.23;1702578;82;21123;-57
2022/11/02 10:19:00;;;;;;;24.65;16.75;;;;;;;10.64;100.00;98192.63;1703602;83;21050;-59
2022/11/02 10:21:36;;;;;;;21.10;14.53;;;;;;;10.68;100.00;98194.98;1695985;82;21039;-57
2022/11/02 10:24:36;;;;;;;24.57;15.28;;;;;;;10.71;100.00;98190.94;1678873;82;21153;-56
2022/11/02 10:27:21;;;;;;;19.32;15.08;;;;;;;10.72;100.00;98198.67;1714903;82;20975;-56
2022/11/02 10:30:19;;;;;;;23.25;15.98;;;;;;;10.70;100.00;98187.45;1670143;84;21185;-56
2022/11/02 10:32:52;;;;;;;21.07;14.60;;;;;;;10.72;100.00;98187.96;1685801;82;21524;-56
2022/11/02 10:35:37;;;;;;;19.80;14.70;;;;;;;10.74;100.00;98187.70;1680506;84;21051;-56
2022/11/02 10:38:12;;;;;;;23.22;15.45;;;;;;;10.74;100.00;98196.50;1695017;83;21144;-54
2022/11/02 10:40:47;;;;;;;20.82;14.30;;;;;;;10.70;100.00;98189.33;1695559;83;21065;-56
2022/11/02 10:43:40;;;;;;;;;;;;;;;10.67;100.00;98188.02;1676370;83;21289;-59
2022/11/02 10:46:27;;;;;;;23.25;15.72;;;;;;;10.64;100.00;98181.91;1712057;82;20431;-59
2022/11/02 10:49:25;;;;;;;21.27;15.85;;;;;;;10.64;100.00;98191.28;1722340;82;20911;-58
2022/11/02 10:51:54;;;;;;;24.55;15.95;;;;;;;10.66;100.00;98182.42;1723734;82;21502;-56
2022/11/02 10:54:22;;;;;;;25.15;16.37;;;;;;;10.67;100.00;98189.35;1724004;82;21057;-60
2022/11/02 10:56:50;;;;;;;23.83;16.10;;;;;;;10.64;100.00;98192.63;1713044;82;21301;-57
2022/11/02 10:59:19;;;;;;;23.85;16.82;;;;;;;10.64;100.00;98187.27;1721097;82;21673;-63
2022/11/02 11:02:03;;;;;;;21.52;16.02;;;;;;;10.64;100.00;98187.27;1706794;83;21513;-62
2022/11/02 11:04:33;;;;;;;23.30;14.75;;;;;;;10.70;100.00;98183.97;1709639;81;21392;-57
2022/11/02 11:07:19;;;;;;;23.95;15.25;;;;;;;10.79;100.00;98184.39;1712786;82;21003;-60
2022/11/02 11:09:55;;;;;;;22.30;16.48;;;;;;;10.86;100.00;98190.20;1694617;82;20952;-63
2022/11/02 11:12:35;;;;;;;30.23;17.87;;;;;;;10.91;100.00;98183.44;1705710;81;21093;-57
2022/11/02 11:15:05;;;;;;;24.87;16.42;;;;;;;10.92;100.00;98182.37;1686969;83;21023;-58
2022/11/02 11:17:38;;;;;;;24.55;16.73;;;;;;;10.90;100.00;98182.40;1697395;83;21014;-56
2022/11/02 11:20:27;;;;;;;24.37;18.48;;;;;;;10.90;100.00;98190.44;1694031;82;21118;-59
2022/11/02 11:23:24;;;;;;;26.33;17.77;;;;;;;10.92;100.00;98181.56;1709107;82;21163;-57
2022/11/02 11:25:57;;;;;;;29.23;19.90;;;;;;;10.89;100.00;98188.30;1711545;82;21435;-57
2022/11/02 11:28:34;;;;;;;31.40;19.95;;;;;;;10.87;100.00;98187.78;1710764;82;21041;-60
2022/11/02 11:31:15;;;;;;;30.55;20.05;;;;;;;10.84;100.00;98192.38;1709924;82;21423;-60
2022/11/02 11:33:53;;;;;;;29.50;22.02;;;;;;;10.83;100.00;98188.09;1707220;82;21547;-58
2022/11/02 11:36:29;;;;;;;30.88;21.23;;;;;;;10.83;100.00;98196.69;1714265;82;21126;-58
2022/11/02 11:39:09;;;;;;;26.62;19.23;;;;;;;10.78;100.00;98196.20;1712735;82;21023;-59
2022/11/02 11:41:40;;;;;;;38.98;24.55;;;;;;;10.71;100.00;98188.25;1678307;83;21050;-58
2022/11/02 11:44:10;;;;;;;30.30;21.40;;;;;;;10.73;100.00;98189.57;1677164;83;20996;-57
2022/11/02 11:46:50;;;;;;;32.48;21.80;;;;;;;10.80;100.00;98195.37;1689757;83;21665;-61